sensor_id;sensor_type;location;lat;lon;timestamp;temperature;humidity
47600;DHT22;33323;52.124;6.018;2023-04-09T00:01:07;9.20;99.90
47600;DHT22;33323;52.124;6.018;2023-04-09T00:03:36;9.20;99.90
47600;DHT22;33323;52.124;6.018;2023-04-09T00:06:04;9.20;99.90
47600;DHT22;33323;52.124;6.018;2023-04-09T00:08:31;9.10;99.90
47600;DHT22;33323;52.124;6.018;2023-04-09T00:10:59;9.10;99.90
47600;DHT22;33323;52.124;6.018;2023-04-09T00:13:26;9.10;99.90
47600;DHT22;33323;52.124;6.018;2023-04-09T00:16:06;9.10;99.90
47600;DHT22;33323;52.124;6.018;2023-04-09T00:18:33;9.20;99.90
47600;DHT22;33323;52.124;6.018;2023-04-09T00:21:00;9.20;99.90
47600;DHT22;33323;52.124;6.018;2023-04-09T00:23:27;9.20;99.90
47600;DHT22;33323;52.124;6.018;2023-04-09T00:25:54;9.20;99.90
47600;DHT22;33323;52.124;6.018;2023-04-09T00:28:21;9.20;99.90
47600;DHT22;33323;52.124;6.018;2023-04-09T00:30:48;9.20;99.90
47600;DHT22;33323;52.124;6.018;2023-04-09T00:33:15;9.20;99.90
47600;DHT22;33323;52.124;6.018;2023-04-09T00:35:42;9.20;99.90
47600;DHT22;33323;52.124;6.018;2023-04-09T00:38:09;9.10;99.90
47600;DHT22;33323;52.124;6.018;2023-04-09T00:40:36;9.10;99.90
47600;DHT22;33323;52.124;6.018;2023-04-09T00:43:03;9.10;99.90
47600;DHT22;33323;52.124;6.018;2023-04-09T00:45:31;9.10;99.90
47600;DHT22;33323;52.124;6.018;2023-04-09T00:47:58;9.10;99.90
47600;DHT22;33323;52.124;6.018;2023-04-09T00:50:26;9.10;99.90
47600;DHT22;33323;52.124;6.018;2023-04-09T00:52:53;9.10;99.90
47600;DHT22;33323;52.124;6.018;2023-04-09T00:55:20;9.00;99.90
47600;DHT22;33323;52.124;6.018;2023-04-09T00:57:48;9.00;99.90
47600;DHT22;33323;52.124;6.018;2023-04-09T01:00:15;9.00;99.90
47600;DHT22;33323;52.124;6.018;2023-04-09T01:02:43;9.00;99.90
47600;DHT22;33323;52.124;6.018;2023-04-09T01:05:11;9.10;99.90
47600;DHT22;33323;52.124;6.018;2023-04-09T01:17:25;9.00;99.90
47600;DHT22;33323;52.124;6.018;2023-04-09T01:20:07;9.00;99.90
47600;DHT22;33323;52.124;6.018;2023-04-09T01:26:06;9.00;99.90
47600;DHT22;33323;52.124;6.018;2023-04-09T01:28:49;9.00;99.90
47600;DHT22;33323;52.124;6.018;2023-04-09T01:31:26;9.00;99.90
47600;DHT22;33323;52.124;6.018;2023-04-09T01:33:56;9.00;99.90
47600;DHT22;33323;52.124;6.018;2023-04-09T01:36:24;9.00;99.90
47600;DHT22;33323;52.124;6.018;2023-04-09T01:38:53;9.00;99.90
47600;DHT22;33323;52.124;6.018;2023-04-09T01:41:22;9.00;99.90
47600;DHT22;33323;52.124;6.018;2023-04-09T01:43:51;9.00;99.90
47600;DHT22;33323;52.124;6.018;2023-04-09T01:46:19;9.00;99.90
47600;DHT22;33323;52.124;6.018;2023-04-09T01:48:48;9.00;99.90
47600;DHT22;33323;52.124;6.018;2023-04-09T01:51:16;9.00;99.90
47600;DHT22;33323;52.124;6.018;2023-04-09T01:53:44;9.00;99.90
47600;DHT22;33323;52.124;6.018;2023-04-09T01:56:11;9.00;99.90
47600;DHT22;33323;52.124;6.018;2023-04-09T01:58:38;9.00;99.90
47600;DHT22;33323;52.124;6.018;2023-04-09T02:01:12;9.00;99.90
47600;DHT22;33323;52.124;6.018;2023-04-09T02:03:50;9.00;99.90
47600;DHT22;33323;52.124;6.018;2023-04-09T02:06:46;8.90;99.90
47600;DHT22;33323;52.124;6.018;2023-04-09T02:09:17;8.90;99.90
47600;DHT22;33323;52.124;6.018;2023-04-09T02:11:47;8.90;99.90
47600;DHT22;33323;52.124;6.018;2023-04-09T02:14:15;8.90;99.90
47600;DHT22;33323;52.124;6.018;2023-04-09T02:16:47;8.90;99.90
47600;DHT22;33323;52.124;6.018;2023-04-09T02:19:14;8.90;99.90
47600;DHT22;33323;52.124;6.018;2023-04-09T02:21:41;8.90;99.90
47600;DHT22;33323;52.124;6.018;2023-04-09T02:24:08;8.90;99.90
47600;DHT22;33323;52.124;6.018;2023-04-09T02:26:35;8.90;99.90
47600;DHT22;33323;52.124;6.018;2023-04-09T02:29:02;9.00;99.90
47600;DHT22;33323;52.124;6.018;2023-04-09T02:31:29;8.90;99.90
47600;DHT22;33323;52.124;6.018;2023-04-09T02:33:56;8.90;99.90
47600;DHT22;33323;52.124;6.018;2023-04-09T02:36:23;8.90;99.90
47600;DHT22;33323;52.124;6.018;2023-04-09T02:38:51;8.90;99.90
47600;DHT22;33323;52.124;6.018;2023-04-09T02:41:18;8.90;99.90
47600;DHT22;33323;52.124;6.018;2023-04-09T02:43:45;8.90;99.90
47600;DHT22;33323;52.124;6.018;2023-04-09T02:46:12;8.90;99.90
47600;DHT22;33323;52.124;6.018;2023-04-09T02:48:39;8.80;99.90
47600;DHT22;33323;52.124;6.018;2023-04-09T02:51:06;8.90;99.90
47600;DHT22;33323;52.124;6.018;2023-04-09T02:53:33;8.80;99.90
47600;DHT22;33323;52.124;6.018;2023-04-09T02:56:00;8.80;99.90
47600;DHT22;33323;52.124;6.018;2023-04-09T02:58:27;8.80;99.90
47600;DHT22;33323;52.124;6.018;2023-04-09T03:00:54;8.80;99.90
47600;DHT22;33323;52.124;6.018;2023-04-09T03:03:21;8.80;99.90
47600;DHT22;33323;52.124;6.018;2023-04-09T03:05:49;8.80;99.90
47600;DHT22;33323;52.124;6.018;2023-04-09T03:08:16;8.80;99.90
47600;DHT22;33323;52.124;6.018;2023-04-09T03:10:42;8.80;99.90
47600;DHT22;33323;52.124;6.018;2023-04-09T03:13:10;8.80;99.90
47600;DHT22;33323;52.124;6.018;2023-04-09T03:15:36;8.80;99.90
47600;DHT22;33323;52.124;6.018;2023-04-09T03:18:03;8.80;99.90
47600;DHT22;33323;52.124;6.018;2023-04-09T03:20:31;8.80;99.90
47600;DHT22;33323;52.124;6.018;2023-04-09T03:22:58;8.70;99.90
47600;DHT22;33323;52.124;6.018;2023-04-09T03:25:33;8.70;99.90
47600;DHT22;33323;52.124;6.018;2023-04-09T03:28:09;8.80;99.90
47600;DHT22;33323;52.124;6.018;2023-04-09T03:30:42;8.70;99.90
47600;DHT22;33323;52.124;6.018;2023-04-09T03:33:10;8.70;99.90
47600;DHT22;33323;52.124;6.018;2023-04-09T03:35:47;8.70;99.90
47600;DHT22;33323;52.124;6.018;2023-04-09T03:38:17;8.80;99.90
47600;DHT22;33323;52.124;6.018;2023-04-09T03:40:44;8.70;99.90
47600;DHT22;33323;52.124;6.018;2023-04-09T03:43:11;8.80;99.90
47600;DHT22;33323;52.124;6.018;2023-04-09T03:45:43;8.80;99.90
47600;DHT22;33323;52.124;6.018;2023-04-09T03:48:20;8.80;99.90
47600;DHT22;33323;52.124;6.018;2023-04-09T03:50:47;8.80;99.90
47600;DHT22;33323;52.124;6.018;2023-04-09T03:53:22;8.80;99.90
47600;DHT22;33323;52.124;6.018;2023-04-09T03:55:49;8.70;99.90
47600;DHT22;33323;52.124;6.018;2023-04-09T03:58:22;8.70;99.90
47600;DHT22;33323;52.124;6.018;2023-04-09T04:00:49;8.70;99.90
47600;DHT22;33323;52.124;6.018;2023-04-09T04:03:31;8.70;99.90
47600;DHT22;33323;52.124;6.018;2023-04-09T04:06:11;8.70;99.90
47600;DHT22;33323;52.124;6.018;2023-04-09T04:08:59;8.70;99.90
47600;DHT22;33323;52.124;6.018;2023-04-09T04:11:36;8.70;99.90
47600;DHT22;33323;52.124;6.018;2023-04-09T04:14:03;8.70;99.90
47600;DHT22;33323;52.124;6.018;2023-04-09T04:16:30;8.60;99.90
47600;DHT22;33323;52.124;6.018;2023-04-09T04:18:58;8.60;99.90
47600;DHT22;33323;52.124;6.018;2023-04-09T04:21:27;8.60;99.90
47600;DHT22;33323;52.124;6.018;2023-04-09T04:23:59;8.60;99.90
47600;DHT22;33323;52.124;6.018;2023-04-09T04:26:28;8.60;99.90
47600;DHT22;33323;52.124;6.018;2023-04-09T04:28:55;8.60;99.90
47600;DHT22;33323;52.124;6.018;2023-04-09T04:31:43;8.60;99.90
47600;DHT22;33323;52.124;6.018;2023-04-09T04:34:12;8.60;99.90
47600;DHT22;33323;52.124;6.018;2023-04-09T04:36:41;8.50;99.90
47600;DHT22;33323;52.124;6.018;2023-04-09T04:39:08;8.50;99.90
47600;DHT22;33323;52.124;6.018;2023-04-09T04:41:48;8.50;99.90
47600;DHT22;33323;52.124;6.018;2023-04-09T04:44:20;8.50;99.90
47600;DHT22;33323;52.124;6.018;2023-04-09T04:46:51;8.50;99.90
47600;DHT22;33323;52.124;6.018;2023-04-09T04:49:18;8.50;99.90
47600;DHT22;33323;52.124;6.018;2023-04-09T04:51:46;8.50;99.90
47600;DHT22;33323;52.124;6.018;2023-04-09T04:54:15;8.50;99.90
47600;DHT22;33323;52.124;6.018;2023-04-09T04:56:51;8.50;99.90
47600;DHT22;33323;52.124;6.018;2023-04-09T04:59:30;8.50;99.90
47600;DHT22;33323;52.124;6.018;2023-04-09T05:02:01;8.50;99.90
47600;DHT22;33323;52.124;6.018;2023-04-09T05:04:35;8.50;99.90
47600;DHT22;33323;52.124;6.018;2023-04-09T05:07:03;8.40;99.90
47600;DHT22;33323;52.124;6.018;2023-04-09T05:09:30;8.40;99.90
47600;DHT22;33323;52.124;6.018;2023-04-09T05:12:05;8.40;99.90
47600;DHT22;33323;52.124;6.018;2023-04-09T05:14:33;8.30;99.90
47600;DHT22;33323;52.124;6.018;2023-04-09T05:17:00;8.30;99.90
47600;DHT22;33323;52.124;6.018;2023-04-09T05:19:38;8.30;99.90
47600;DHT22;33323;52.124;6.018;2023-04-09T05:22:05;8.30;99.90
47600;DHT22;33323;52.124;6.018;2023-04-09T05:24:33;8.30;99.90
47600;DHT22;33323;52.124;6.018;2023-04-09T05:27:00;8.30;99.90
47600;DHT22;33323;52.124;6.018;2023-04-09T05:29:28;8.30;99.90
47600;DHT22;33323;52.124;6.018;2023-04-09T05:31:55;8.30;99.90
47600;DHT22;33323;52.124;6.018;2023-04-09T05:34:30;8.30;99.90
47600;DHT22;33323;52.124;6.018;2023-04-09T05:36:57;8.20;99.90
47600;DHT22;33323;52.124;6.018;2023-04-09T05:39:24;8.30;99.90
47600;DHT22;33323;52.124;6.018;2023-04-09T05:41:52;8.40;99.90
47600;DHT22;33323;52.124;6.018;2023-04-09T05:44:30;8.50;99.90
47600;DHT22;33323;52.124;6.018;2023-04-09T05:47:05;8.60;99.90
47600;DHT22;33323;52.124;6.018;2023-04-09T05:49:40;8.60;99.90
47600;DHT22;33323;52.124;6.018;2023-04-09T05:52:11;8.50;99.90
47600;DHT22;33323;52.124;6.018;2023-04-09T05:54:38;8.60;99.90
47600;DHT22;33323;52.124;6.018;2023-04-09T05:57:07;8.60;99.90
47600;DHT22;33323;52.124;6.018;2023-04-09T05:59:37;8.60;99.90
47600;DHT22;33323;52.124;6.018;2023-04-09T06:02:04;8.60;99.90
47600;DHT22;33323;52.124;6.018;2023-04-09T06:04:32;8.90;99.90
47600;DHT22;33323;52.124;6.018;2023-04-09T06:06:59;9.10;99.90
47600;DHT22;33323;52.124;6.018;2023-04-09T06:09:27;9.30;99.90
47600;DHT22;33323;52.124;6.018;2023-04-09T06:11:54;9.60;99.90
47600;DHT22;33323;52.124;6.018;2023-04-09T06:14:21;9.90;99.90
47600;DHT22;33323;52.124;6.018;2023-04-09T06:16:48;10.00;99.90
47600;DHT22;33323;52.124;6.018;2023-04-09T06:19:15;10.20;99.90
47600;DHT22;33323;52.124;6.018;2023-04-09T06:21:43;10.30;99.90
47600;DHT22;33323;52.124;6.018;2023-04-09T06:24:10;10.50;99.90
47600;DHT22;33323;52.124;6.018;2023-04-09T06:26:37;10.60;99.90
47600;DHT22;33323;52.124;6.018;2023-04-09T06:29:05;10.40;99.90
47600;DHT22;33323;52.124;6.018;2023-04-09T06:31:35;10.50;99.90
47600;DHT22;33323;52.124;6.018;2023-04-09T06:34:02;10.50;99.90
47600;DHT22;33323;52.124;6.018;2023-04-09T06:36:29;10.70;99.90
47600;DHT22;33323;52.124;6.018;2023-04-09T06:38:59;10.60;99.90
47600;DHT22;33323;52.124;6.018;2023-04-09T06:41:26;10.90;99.90
47600;DHT22;33323;52.124;6.018;2023-04-09T06:43:53;11.10;99.90
47600;DHT22;33323;52.124;6.018;2023-04-09T06:46:20;10.90;99.90
47600;DHT22;33323;52.124;6.018;2023-04-09T06:48:48;10.60;99.90
47600;DHT22;33323;52.124;6.018;2023-04-09T06:51:15;10.70;99.90
47600;DHT22;33323;52.124;6.018;2023-04-09T06:53:42;10.70;99.90
47600;DHT22;33323;52.124;6.018;2023-04-09T06:56:09;10.90;99.90
47600;DHT22;33323;52.124;6.018;2023-04-09T06:58:37;11.00;99.90
47600;DHT22;33323;52.124;6.018;2023-04-09T07:01:04;10.80;99.90
47600;DHT22;33323;52.124;6.018;2023-04-09T07:03:31;10.60;99.90
47600;DHT22;33323;52.124;6.018;2023-04-09T07:05:59;10.50;99.90
47600;DHT22;33323;52.124;6.018;2023-04-09T07:08:26;10.30;99.90
47600;DHT22;33323;52.124;6.018;2023-04-09T07:10:54;10.10;99.90
47600;DHT22;33323;52.124;6.018;2023-04-09T07:13:24;10.20;99.90
47600;DHT22;33323;52.124;6.018;2023-04-09T07:15:51;10.10;99.90
47600;DHT22;33323;52.124;6.018;2023-04-09T07:18:19;10.10;99.90
47600;DHT22;33323;52.124;6.018;2023-04-09T07:20:46;10.20;99.90
47600;DHT22;33323;52.124;6.018;2023-04-09T07:23:13;10.10;99.90
47600;DHT22;33323;52.124;6.018;2023-04-09T07:25:40;10.10;99.90
47600;DHT22;33323;52.124;6.018;2023-04-09T07:28:07;10.10;99.90
47600;DHT22;33323;52.124;6.018;2023-04-09T07:30:35;10.00;99.90
47600;DHT22;33323;52.124;6.018;2023-04-09T07:33:02;10.20;99.90
47600;DHT22;33323;52.124;6.018;2023-04-09T07:35:29;10.20;99.90
47600;DHT22;33323;52.124;6.018;2023-04-09T07:37:57;10.30;99.90
47600;DHT22;33323;52.124;6.018;2023-04-09T07:40:24;10.40;99.90
47600;DHT22;33323;52.124;6.018;2023-04-09T07:42:52;10.50;99.90
47600;DHT22;33323;52.124;6.018;2023-04-09T07:45:21;10.30;99.90
47600;DHT22;33323;52.124;6.018;2023-04-09T07:47:48;10.20;99.90
47600;DHT22;33323;52.124;6.018;2023-04-09T07:50:15;10.20;99.90
47600;DHT22;33323;52.124;6.018;2023-04-09T07:52:42;10.40;99.90
47600;DHT22;33323;52.124;6.018;2023-04-09T07:55:10;10.60;99.90
47600;DHT22;33323;52.124;6.018;2023-04-09T07:57:37;10.80;99.90
47600;DHT22;33323;52.124;6.018;2023-04-09T08:00:04;10.70;99.90
47600;DHT22;33323;52.124;6.018;2023-04-09T08:02:38;10.60;99.90
47600;DHT22;33323;52.124;6.018;2023-04-09T08:05:07;10.60;99.90
47600;DHT22;33323;52.124;6.018;2023-04-09T08:07:34;10.90;99.90
47600;DHT22;33323;52.124;6.018;2023-04-09T08:10:03;11.30;99.90
47600;DHT22;33323;52.124;6.018;2023-04-09T08:12:32;11.70;99.90
47600;DHT22;33323;52.124;6.018;2023-04-09T08:14:59;11.90;99.90
47600;DHT22;33323;52.124;6.018;2023-04-09T08:17:29;12.10;99.90
47600;DHT22;33323;52.124;6.018;2023-04-09T08:19:56;12.10;99.90
47600;DHT22;33323;52.124;6.018;2023-04-09T08:22:24;12.20;99.90
47600;DHT22;33323;52.124;6.018;2023-04-09T08:24:51;12.00;99.90
47600;DHT22;33323;52.124;6.018;2023-04-09T08:27:19;12.20;99.90
47600;DHT22;33323;52.124;6.018;2023-04-09T08:29:47;12.50;99.90
47600;DHT22;33323;52.124;6.018;2023-04-09T08:32:14;12.50;99.90
47600;DHT22;33323;52.124;6.018;2023-04-09T08:34:41;12.50;99.90
47600;DHT22;33323;52.124;6.018;2023-04-09T08:37:08;12.50;99.90
47600;DHT22;33323;52.124;6.018;2023-04-09T08:39:35;12.50;99.90
47600;DHT22;33323;52.124;6.018;2023-04-09T08:42:05;12.90;99.90
47600;DHT22;33323;52.124;6.018;2023-04-09T08:44:32;13.50;99.90
47600;DHT22;33323;52.124;6.018;2023-04-09T08:47:00;14.00;99.90
47600;DHT22;33323;52.124;6.018;2023-04-09T08:49:28;14.00;99.90
47600;DHT22;33323;52.124;6.018;2023-04-09T08:51:55;14.10;99.90
47600;DHT22;33323;52.124;6.018;2023-04-09T08:54:22;14.40;99.90
47600;DHT22;33323;52.124;6.018;2023-04-09T08:56:52;14.30;99.90
47600;DHT22;33323;52.124;6.018;2023-04-09T08:59:19;14.30;99.90
47600;DHT22;33323;52.124;6.018;2023-04-09T09:01:46;14.50;99.90
47600;DHT22;33323;52.124;6.018;2023-04-09T09:04:19;14.70;99.90
47600;DHT22;33323;52.124;6.018;2023-04-09T09:06:46;15.10;99.90
47600;DHT22;33323;52.124;6.018;2023-04-09T09:09:15;15.40;99.90
47600;DHT22;33323;52.124;6.018;2023-04-09T09:11:44;15.80;99.90
47600;DHT22;33323;52.124;6.018;2023-04-09T09:14:18;14.90;99.90
47600;DHT22;33323;52.124;6.018;2023-04-09T09:24:23;15.10;99.90
47600;DHT22;33323;52.124;6.018;2023-04-09T09:26:51;15.10;99.90
47600;DHT22;33323;52.124;6.018;2023-04-09T09:29:20;15.00;99.90
47600;DHT22;33323;52.124;6.018;2023-04-09T09:31:49;14.90;99.90
47600;DHT22;33323;52.124;6.018;2023-04-09T09:34:18;14.90;99.90
47600;DHT22;33323;52.124;6.018;2023-04-09T09:36:47;14.60;99.90
47600;DHT22;33323;52.124;6.018;2023-04-09T09:39:15;14.50;99.90
47600;DHT22;33323;52.124;6.018;2023-04-09T09:41:44;14.40;99.90
47600;DHT22;33323;52.124;6.018;2023-04-09T09:44:30;14.50;99.90
47600;DHT22;33323;52.124;6.018;2023-04-09T09:46:58;14.90;99.90
47600;DHT22;33323;52.124;6.018;2023-04-09T09:49:25;14.90;99.90
47600;DHT22;33323;52.124;6.018;2023-04-09T09:51:52;15.00;99.90
47600;DHT22;33323;52.124;6.018;2023-04-09T09:54:24;15.00;99.90
47600;DHT22;33323;52.124;6.018;2023-04-09T09:56:57;15.30;99.90
47600;DHT22;33323;52.124;6.018;2023-04-09T09:59:31;15.20;99.90
47600;DHT22;33323;52.124;6.018;2023-04-09T10:02:12;15.40;99.90
47600;DHT22;33323;52.124;6.018;2023-04-09T10:04:44;15.50;99.90
47600;DHT22;33323;52.124;6.018;2023-04-09T10:07:12;15.70;99.90
47600;DHT22;33323;52.124;6.018;2023-04-09T10:09:46;15.70;99.90
47600;DHT22;33323;52.124;6.018;2023-04-09T10:12:16;15.30;99.90
47600;DHT22;33323;52.124;6.018;2023-04-09T10:14:44;15.40;99.90
47600;DHT22;33323;52.124;6.018;2023-04-09T10:17:11;15.50;99.90
47600;DHT22;33323;52.124;6.018;2023-04-09T10:19:43;15.90;99.90
47600;DHT22;33323;52.124;6.018;2023-04-09T10:22:25;16.60;99.90
47600;DHT22;33323;52.124;6.018;2023-04-09T10:24:53;16.00;99.90
47600;DHT22;33323;52.124;6.018;2023-04-09T10:27:21;15.70;99.90
47600;DHT22;33323;52.124;6.018;2023-04-09T10:29:49;15.80;99.90
47600;DHT22;33323;52.124;6.018;2023-04-09T10:32:21;15.80;99.90
47600;DHT22;33323;52.124;6.018;2023-04-09T10:34:55;15.90;99.90
47600;DHT22;33323;52.124;6.018;2023-04-09T10:37:25;16.00;99.90
47600;DHT22;33323;52.124;6.018;2023-04-09T10:39:53;15.90;99.90
47600;DHT22;33323;52.124;6.018;2023-04-09T10:42:23;15.80;99.90
47600;DHT22;33323;52.124;6.018;2023-04-09T10:45:11;16.20;99.90
47600;DHT22;33323;52.124;6.018;2023-04-09T10:47:41;16.60;99.90
47600;DHT22;33323;52.124;6.018;2023-04-09T10:50:20;16.80;99.90
47600;DHT22;33323;52.124;6.018;2023-04-09T10:52:54;17.10;99.90
47600;DHT22;33323;52.124;6.018;2023-04-09T10:55:37;16.80;99.90
47600;DHT22;33323;52.124;6.018;2023-04-09T10:58:05;17.30;99.90
47600;DHT22;33323;52.124;6.018;2023-04-09T11:00:41;16.80;99.90
47600;DHT22;33323;52.124;6.018;2023-04-09T11:03:21;16.40;99.90
47600;DHT22;33323;52.124;6.018;2023-04-09T11:06:00;15.60;99.90
47600;DHT22;33323;52.124;6.018;2023-04-09T11:08:32;15.50;99.90
47600;DHT22;33323;52.124;6.018;2023-04-09T11:11:00;15.80;99.90
47600;DHT22;33323;52.124;6.018;2023-04-09T11:13:29;16.10;99.90
47600;DHT22;33323;52.124;6.018;2023-04-09T11:15:57;15.80;99.90
47600;DHT22;33323;52.124;6.018;2023-04-09T11:18:28;15.80;99.90
47600;DHT22;33323;52.124;6.018;2023-04-09T11:20:56;15.50;99.90
47600;DHT22;33323;52.124;6.018;2023-04-09T11:23:27;15.40;99.90
47600;DHT22;33323;52.124;6.018;2023-04-09T11:25:54;15.40;99.90
47600;DHT22;33323;52.124;6.018;2023-04-09T11:28:22;16.10;99.90
47600;DHT22;33323;52.124;6.018;2023-04-09T11:30:50;15.90;99.90
47600;DHT22;33323;52.124;6.018;2023-04-09T11:33:18;16.00;99.90
47600;DHT22;33323;52.124;6.018;2023-04-09T11:35:46;16.10;99.90
47600;DHT22;33323;52.124;6.018;2023-04-09T11:38:14;16.20;99.90
47600;DHT22;33323;52.124;6.018;2023-04-09T11:40:42;16.10;99.90
47600;DHT22;33323;52.124;6.018;2023-04-09T11:43:17;16.10;99.90
47600;DHT22;33323;52.124;6.018;2023-04-09T11:45:46;16.30;99.90
47600;DHT22;33323;52.124;6.018;2023-04-09T11:48:15;16.10;99.90
47600;DHT22;33323;52.124;6.018;2023-04-09T11:50:47;16.20;99.90
47600;DHT22;33323;52.124;6.018;2023-04-09T11:53:21;15.70;99.90
47600;DHT22;33323;52.124;6.018;2023-04-09T11:55:50;15.40;99.90
47600;DHT22;33323;52.124;6.018;2023-04-09T11:58:22;15.60;99.90
47600;DHT22;33323;52.124;6.018;2023-04-09T12:00:54;15.80;99.90
47600;DHT22;33323;52.124;6.018;2023-04-09T12:03:31;16.10;99.90
47600;DHT22;33323;52.124;6.018;2023-04-09T12:06:00;16.70;99.90
47600;DHT22;33323;52.124;6.018;2023-04-09T12:08:28;17.20;99.90
47600;DHT22;33323;52.124;6.018;2023-04-09T12:11:04;17.50;99.90
47600;DHT22;33323;52.124;6.018;2023-04-09T12:13:33;17.10;99.90
47600;DHT22;33323;52.124;6.018;2023-04-09T12:16:01;17.40;99.90
47600;DHT22;33323;52.124;6.018;2023-04-09T12:18:30;17.30;99.90
47600;DHT22;33323;52.124;6.018;2023-04-09T12:21:02;17.00;99.90
47600;DHT22;33323;52.124;6.018;2023-04-09T12:23:29;17.20;99.90
47600;DHT22;33323;52.124;6.018;2023-04-09T12:25:59;17.20;99.90
47600;DHT22;33323;52.124;6.018;2023-04-09T12:28:28;17.30;99.90
47600;DHT22;33323;52.124;6.018;2023-04-09T12:30:55;17.40;99.90
47600;DHT22;33323;52.124;6.018;2023-04-09T12:33:23;17.40;99.90
47600;DHT22;33323;52.124;6.018;2023-04-09T12:35:50;17.40;99.90
47600;DHT22;33323;52.124;6.018;2023-04-09T12:38:17;17.40;99.90
47600;DHT22;33323;52.124;6.018;2023-04-09T12:40:45;17.40;99.90
47600;DHT22;33323;52.124;6.018;2023-04-09T12:43:12;17.60;99.90
47600;DHT22;33323;52.124;6.018;2023-04-09T12:45:39;17.70;99.90
47600;DHT22;33323;52.124;6.018;2023-04-09T12:48:06;17.60;99.90
47600;DHT22;33323;52.124;6.018;2023-04-09T12:50:33;17.60;99.90
47600;DHT22;33323;52.124;6.018;2023-04-09T12:53:00;17.40;99.90
47600;DHT22;33323;52.124;6.018;2023-04-09T12:55:27;17.60;99.90
47600;DHT22;33323;52.124;6.018;2023-04-09T12:57:54;17.70;99.90
47600;DHT22;33323;52.124;6.018;2023-04-09T13:00:21;17.70;99.90
47600;DHT22;33323;52.124;6.018;2023-04-09T13:02:48;17.40;99.90
47600;DHT22;33323;52.124;6.018;2023-04-09T13:05:18;17.50;99.90
47600;DHT22;33323;52.124;6.018;2023-04-09T13:07:45;17.60;99.90
47600;DHT22;33323;52.124;6.018;2023-04-09T13:10:13;17.50;99.90
47600;DHT22;33323;52.124;6.018;2023-04-09T13:12:40;17.10;99.90
47600;DHT22;33323;52.124;6.018;2023-04-09T13:15:07;17.30;99.90
47600;DHT22;33323;52.124;6.018;2023-04-09T13:17:34;17.50;99.90
47600;DHT22;33323;52.124;6.018;2023-04-09T13:20:01;17.50;99.90
47600;DHT22;33323;52.124;6.018;2023-04-09T13:22:29;17.20;99.90
47600;DHT22;33323;52.124;6.018;2023-04-09T13:24:56;17.10;99.90
47600;DHT22;33323;52.124;6.018;2023-04-09T13:27:23;16.80;99.90
47600;DHT22;33323;52.124;6.018;2023-04-09T13:29:50;16.80;99.90
47600;DHT22;33323;52.124;6.018;2023-04-09T13:32:17;17.00;99.90
47600;DHT22;33323;52.124;6.018;2023-04-09T13:34:46;16.70;99.90
47600;DHT22;33323;52.124;6.018;2023-04-09T13:37:14;17.10;99.90
47600;DHT22;33323;52.124;6.018;2023-04-09T13:39:42;17.50;99.90
47600;DHT22;33323;52.124;6.018;2023-04-09T13:42:10;17.10;99.90
47600;DHT22;33323;52.124;6.018;2023-04-09T13:44:40;16.60;99.90
47600;DHT22;33323;52.124;6.018;2023-04-09T13:47:14;16.90;99.90
47600;DHT22;33323;52.124;6.018;2023-04-09T13:49:42;17.20;99.90
47600;DHT22;33323;52.124;6.018;2023-04-09T13:52:10;17.40;99.90
47600;DHT22;33323;52.124;6.018;2023-04-09T13:54:37;17.40;99.90
47600;DHT22;33323;52.124;6.018;2023-04-09T13:57:04;16.70;99.90
47600;DHT22;33323;52.124;6.018;2023-04-09T13:59:31;16.60;99.90
47600;DHT22;33323;52.124;6.018;2023-04-09T14:01:58;16.60;99.90
47600;DHT22;33323;52.124;6.018;2023-04-09T14:04:26;16.40;99.90
47600;DHT22;33323;52.124;6.018;2023-04-09T14:06:53;16.20;99.90
47600;DHT22;33323;52.124;6.018;2023-04-09T14:09:20;16.20;99.90
47600;DHT22;33323;52.124;6.018;2023-04-09T14:11:48;16.70;99.90
47600;DHT22;33323;52.124;6.018;2023-04-09T14:14:15;17.00;99.90
47600;DHT22;33323;52.124;6.018;2023-04-09T14:16:43;17.00;99.90
47600;DHT22;33323;52.124;6.018;2023-04-09T14:19:10;16.60;99.90
47600;DHT22;33323;52.124;6.018;2023-04-09T14:21:38;16.70;99.90
47600;DHT22;33323;52.124;6.018;2023-04-09T14:24:05;16.80;99.90
47600;DHT22;33323;52.124;6.018;2023-04-09T14:26:33;16.40;99.90
47600;DHT22;33323;52.124;6.018;2023-04-09T14:29:00;16.10;99.90
47600;DHT22;33323;52.124;6.018;2023-04-09T14:31:27;16.40;99.90
47600;DHT22;33323;52.124;6.018;2023-04-09T14:33:55;16.20;99.90
47600;DHT22;33323;52.124;6.018;2023-04-09T14:36:22;15.80;99.90
47600;DHT22;33323;52.124;6.018;2023-04-09T14:38:49;15.70;99.90
47600;DHT22;33323;52.124;6.018;2023-04-09T14:41:17;15.80;99.90
47600;DHT22;33323;52.124;6.018;2023-04-09T14:43:44;16.10;99.90
47600;DHT22;33323;52.124;6.018;2023-04-09T14:46:11;16.40;99.90
47600;DHT22;33323;52.124;6.018;2023-04-09T14:48:38;16.80;99.90
47600;DHT22;33323;52.124;6.018;2023-04-09T14:51:08;16.90;99.90
47600;DHT22;33323;52.124;6.018;2023-04-09T14:53:37;17.00;99.90
47600;DHT22;33323;52.124;6.018;2023-04-09T14:56:04;16.70;99.90
47600;DHT22;33323;52.124;6.018;2023-04-09T14:58:32;16.90;99.90
47600;DHT22;33323;52.124;6.018;2023-04-09T15:00:59;16.80;99.90
47600;DHT22;33323;52.124;6.018;2023-04-09T15:03:26;16.90;99.90
47600;DHT22;33323;52.124;6.018;2023-04-09T15:05:54;17.00;99.90
47600;DHT22;33323;52.124;6.018;2023-04-09T15:08:21;17.00;99.90
47600;DHT22;33323;52.124;6.018;2023-04-09T15:10:49;17.00;99.90
47600;DHT22;33323;52.124;6.018;2023-04-09T15:13:16;16.90;99.90
47600;DHT22;33323;52.124;6.018;2023-04-09T15:15:44;16.70;99.90
47600;DHT22;33323;52.124;6.018;2023-04-09T15:18:11;16.80;99.90
47600;DHT22;33323;52.124;6.018;2023-04-09T15:20:38;16.90;99.90
47600;DHT22;33323;52.124;6.018;2023-04-09T15:23:05;16.90;99.90
47600;DHT22;33323;52.124;6.018;2023-04-09T15:25:32;16.90;99.90
47600;DHT22;33323;52.124;6.018;2023-04-09T15:28:01;16.60;99.90
47600;DHT22;33323;52.124;6.018;2023-04-09T15:30:28;16.10;99.90
47600;DHT22;33323;52.124;6.018;2023-04-09T15:32:56;16.10;99.90
47600;DHT22;33323;52.124;6.018;2023-04-09T15:35:23;15.80;99.90
47600;DHT22;33323;52.124;6.018;2023-04-09T15:37:52;15.90;99.90
47600;DHT22;33323;52.124;6.018;2023-04-09T15:40:19;16.00;99.90
47600;DHT22;33323;52.124;6.018;2023-04-09T15:42:46;16.00;99.90
47600;DHT22;33323;52.124;6.018;2023-04-09T15:45:14;16.30;99.90
47600;DHT22;33323;52.124;6.018;2023-04-09T15:47:45;16.50;99.90
47600;DHT22;33323;52.124;6.018;2023-04-09T15:50:13;16.50;99.90
47600;DHT22;33323;52.124;6.018;2023-04-09T15:52:40;16.50;99.90
47600;DHT22;33323;52.124;6.018;2023-04-09T15:55:08;16.60;99.90
47600;DHT22;33323;52.124;6.018;2023-04-09T15:57:35;16.60;99.90
47600;DHT22;33323;52.124;6.018;2023-04-09T16:00:04;16.70;99.90
47600;DHT22;33323;52.124;6.018;2023-04-09T16:02:36;16.80;99.90
47600;DHT22;33323;52.124;6.018;2023-04-09T16:05:04;16.40;99.90
47600;DHT22;33323;52.124;6.018;2023-04-09T16:07:33;16.40;99.90
47600;DHT22;33323;52.124;6.018;2023-04-09T16:10:00;16.60;99.90